sensor_id;sensor_type;location;lat;lon;timestamp;P1;durP1;ratioP1;P2;durP2;ratioP2
19575;SDS011;41589;51.196;7.074;2022-10-31T00:00:03;1.37;;;1.27;;
19575;SDS011;41589;51.196;7.074;2022-10-31T00:05:11;1.40;;;1.30;;
19575;SDS011;41589;51.196;7.074;2022-10-31T00:10:11;2.07;;;1.70;;
19575;SDS011;41589;51.196;7.074;2022-10-31T00:15:12;1.60;;;1.50;;
19575;SDS011;41589;51.196;7.074;2022-10-31T00:20:12;1.73;;;1.60;;
19575;SDS011;41589;51.196;7.074;2022-10-31T00:25:13;1.63;;;1.50;;
19575;SDS011;41589;51.196;7.074;2022-10-31T00:30:13;1.80;;;1.50;;
19575;SDS011;41589;51.196;7.074;2022-10-31T00:35:15;1.60;;;1.50;;
19575;SDS011;41589;51.196;7.074;2022-10-31T00:40:17;1.43;;;1.30;;
19575;SDS011;41589;51.196;7.074;2022-10-31T00:45:17;1.57;;;1.47;;
19575;SDS011;41589;51.196;7.074;2022-10-31T00:50:18;1.40;;;1.30;;
19575;SDS011;41589;51.196;7.074;2022-10-31T00:55:18;1.50;;;1.40;;
19575;SDS011;41589;51.196;7.074;2022-10-31T01:00:19;1.77;;;1.50;;
19575;SDS011;41589;51.196;7.074;2022-10-31T01:05:20;1.27;;;1.17;;
19575;SDS011;41589;51.196;7.074;2022-10-31T01:10:21;1.30;;;1.20;;
19575;SDS011;41589;51.196;7.074;2022-10-31T01:15:22;1.80;;;1.70;;
19575;SDS011;41589;51.196;7.074;2022-10-31T01:20:23;1.97;;;1.87;;
19575;SDS011;41589;51.196;7.074;2022-10-31T01:25:23;2.23;;;1.43;;
19575;SDS011;41589;51.196;7.074;2022-10-31T01:30:24;1.63;;;1.53;;
19575;SDS011;41589;51.196;7.074;2022-10-31T01:35:24;1.60;;;1.50;;
19575;SDS011;41589;51.196;7.074;2022-10-31T01:40:28;1.50;;;1.40;;
19575;SDS011;41589;51.196;7.074;2022-10-31T01:45:29;1.73;;;1.63;;
19575;SDS011;41589;51.196;7.074;2022-10-31T01:50:35;1.90;;;1.70;;
19575;SDS011;41589;51.196;7.074;2022-10-31T01:55:39;2.00;;;1.70;;
19575;SDS011;41589;51.196;7.074;2022-10-31T02:00:42;2.13;;;1.93;;
19575;SDS011;41589;51.196;7.074;2022-10-31T02:05:46;1.70;;;1.60;;
19575;SDS011;41589;51.196;7.074;2022-10-31T02:10:47;1.73;;;1.63;;
19575;SDS011;41589;51.196;7.074;2022-10-31T02:15:49;1.50;;;1.40;;
19575;SDS011;41589;51.196;7.074;2022-10-31T02:26:43;1.80;;;1.47;;
19575;SDS011;41589;51.196;7.074;2022-10-31T02:32:00;1.50;;;1.40;;
19575;SDS011;41589;51.196;7.074;2022-10-31T02:37:11;1.50;;;1.40;;
19575;SDS011;41589;51.196;7.074;2022-10-31T02:48:04;1.83;;;1.40;;
19575;SDS011;41589;51.196;7.074;2022-10-31T02:53:15;2.03;;;1.50;;
19575;SDS011;41589;51.196;7.074;2022-10-31T02:58:20;1.37;;;1.27;;
19575;SDS011;41589;51.196;7.074;2022-10-31T03:03:31;1.60;;;1.50;;
19575;SDS011;41589;51.196;7.074;2022-10-31T03:08:53;1.90;;;1.80;;
19575;SDS011;41589;51.196;7.074;2022-10-31T03:14:04;1.70;;;1.60;;
19575;SDS011;41589;51.196;7.074;2022-10-31T03:19:08;2.03;;;1.90;;
19575;SDS011;41589;51.196;7.074;2022-10-31T03:24:15;1.70;;;1.60;;
19575;SDS011;41589;51.196;7.074;2022-10-31T03:29:16;1.60;;;1.50;;
19575;SDS011;41589;51.196;7.074;2022-10-31T03:34:21;1.57;;;1.47;;
19575;SDS011;41589;51.196;7.074;2022-10-31T03:39:30;1.63;;;1.53;;
19575;SDS011;41589;51.196;7.074;2022-10-31T03:44:32;1.63;;;1.53;;
19575;SDS011;41589;51.196;7.074;2022-10-31T03:49:36;1.83;;;1.73;;
19575;SDS011;41589;51.196;7.074;2022-10-31T03:54:43;2.10;;;2.00;;
19575;SDS011;41589;51.196;7.074;2022-10-31T03:59:51;2.13;;;2.00;;
19575;SDS011;41589;51.196;7.074;2022-10-31T04:04:57;1.60;;;1.60;;
19575;SDS011;41589;51.196;7.074;2022-10-31T04:09:59;1.70;;;1.60;;
19575;SDS011;41589;51.196;7.074;2022-10-31T04:15:02;3.27;;;2.63;;
19575;SDS011;41589;51.196;7.074;2022-10-31T04:20:06;2.00;;;1.90;;
19575;SDS011;41589;51.196;7.074;2022-10-31T04:25:08;2.00;;;1.90;;
19575;SDS011;41589;51.196;7.074;2022-10-31T04:30:08;2.03;;;1.93;;
19575;SDS011;41589;51.196;7.074;2022-10-31T04:35:13;2.50;;;2.30;;
19575;SDS011;41589;51.196;7.074;2022-10-31T04:40:14;2.10;;;2.00;;
19575;SDS011;41589;51.196;7.074;2022-10-31T04:45:33;2.73;;;1.90;;
19575;SDS011;41589;51.196;7.074;2022-10-31T04:50:34;2.20;;;2.00;;
19575;SDS011;41589;51.196;7.074;2022-10-31T04:55:35;2.30;;;2.10;;
19575;SDS011;41589;51.196;7.074;2022-10-31T05:00:51;2.70;;;2.50;;
19575;SDS011;41589;51.196;7.074;2022-10-31T05:05:53;1.80;;;1.70;;
19575;SDS011;41589;51.196;7.074;2022-10-31T05:10:54;2.83;;;2.50;;
19575;SDS011;41589;51.196;7.074;2022-10-31T05:15:55;2.27;;;2.17;;
19575;SDS011;41589;51.196;7.074;2022-10-31T05:20:56;2.70;;;2.50;;
19575;SDS011;41589;51.196;7.074;2022-10-31T05:26:10;2.30;;;2.20;;
19575;SDS011;41589;51.196;7.074;2022-10-31T05:31:11;2.57;;;2.37;;
19575;SDS011;41589;51.196;7.074;2022-10-31T05:36:11;2.90;;;2.70;;
19575;SDS011;41589;51.196;7.074;2022-10-31T05:41:17;3.57;;;2.37;;
19575;SDS011;41589;51.196;7.074;2022-10-31T05:46:20;2.50;;;2.30;;
19575;SDS011;41589;51.196;7.074;2022-10-31T05:51:39;3.23;;;2.67;;
19575;SDS011;41589;51.196;7.074;2022-10-31T05:56:42;2.73;;;2.63;;
19575;SDS011;41589;51.196;7.074;2022-10-31T06:01:46;3.20;;;3.00;;
19575;SDS011;41589;51.196;7.074;2022-10-31T06:07:02;2.90;;;2.70;;
19575;SDS011;41589;51.196;7.074;2022-10-31T06:12:02;2.93;;;2.73;;
19575;SDS011;41589;51.196;7.074;2022-10-31T06:17:23;3.10;;;2.90;;
19575;SDS011;41589;51.196;7.074;2022-10-31T06:22:23;3.30;;;3.10;;
19575;SDS011;41589;51.196;7.074;2022-10-31T06:27:25;3.27;;;3.07;;
19575;SDS011;41589;51.196;7.074;2022-10-31T06:32:27;3.53;;;3.23;;
19575;SDS011;41589;51.196;7.074;2022-10-31T06:37:27;3.60;;;3.30;;
19575;SDS011;41589;51.196;7.074;2022-10-31T06:42:36;3.40;;;3.20;;
19575;SDS011;41589;51.196;7.074;2022-10-31T06:47:37;3.40;;;3.20;;
19575;SDS011;41589;51.196;7.074;2022-10-31T06:52:41;3.60;;;3.30;;
19575;SDS011;41589;51.196;7.074;2022-10-31T06:57:48;3.37;;;3.17;;
19575;SDS011;41589;51.196;7.074;2022-10-31T07:02:54;3.50;;;3.27;;
19575;SDS011;41589;51.196;7.074;2022-10-31T07:08:00;3.60;;;3.40;;
19575;SDS011;41589;51.196;7.074;2022-10-31T07:13:04;3.07;;;2.87;;
19575;SDS011;41589;51.196;7.074;2022-10-31T07:18:09;3.40;;;3.20;;
19575;SDS011;41589;51.196;7.074;2022-10-31T07:23:12;3.97;;;3.67;;
19575;SDS011;41589;51.196;7.074;2022-10-31T07:28:15;3.27;;;3.07;;
19575;SDS011;41589;51.196;7.074;2022-10-31T07:33:19;3.70;;;3.47;;
19575;SDS011;41589;51.196;7.074;2022-10-31T07:38:59;3.50;;;3.20;;
19575;SDS011;41589;51.196;7.074;2022-10-31T07:43:59;3.27;;;3.07;;
19575;SDS011;41589;51.196;7.074;2022-10-31T07:49:03;3.57;;;3.30;;
19575;SDS011;41589;51.196;7.074;2022-10-31T07:54:22;3.60;;;3.30;;
19575;SDS011;41589;51.196;7.074;2022-10-31T07:59:22;4.20;;;3.90;;
19575;SDS011;41589;51.196;7.074;2022-10-31T08:04:23;3.70;;;3.50;;
19575;SDS011;41589;51.196;7.074;2022-10-31T08:10:01;3.50;;;3.23;;
19575;SDS011;41589;51.196;7.074;2022-10-31T08:15:05;3.67;;;3.27;;
19575;SDS011;41589;51.196;7.074;2022-10-31T08:20:06;3.60;;;3.40;;
19575;SDS011;41589;51.196;7.074;2022-10-31T08:25:10;3.20;;;3.00;;
19575;SDS011;41589;51.196;7.074;2022-10-31T08:30:11;3.33;;;3.13;;
19575;SDS011;41589;51.196;7.074;2022-10-31T08:35:15;3.27;;;3.00;;
19575;SDS011;41589;51.196;7.074;2022-10-31T08:40:48;3.07;;;2.87;;
19575;SDS011;41589;51.196;7.074;2022-10-31T08:45:49;3.23;;;3.00;;
19575;SDS011;41589;51.196;7.074;2022-10-31T08:50:57;2.97;;;2.57;;
19575;SDS011;41589;51.196;7.074;2022-10-31T08:55:59;3.03;;;2.83;;
19575;SDS011;41589;51.196;7.074;2022-10-31T09:01:02;2.90;;;2.63;;
19575;SDS011;41589;51.196;7.074;2022-10-31T09:06:02;2.77;;;2.57;;
19575;SDS011;41589;51.196;7.074;2022-10-31T09:11:05;2.60;;;2.40;;
19575;SDS011;41589;51.196;7.074;2022-10-31T09:16:38;2.80;;;2.60;;
19575;SDS011;41589;51.196;7.074;2022-10-31T09:21:42;2.77;;;2.57;;
19575;SDS011;41589;51.196;7.074;2022-10-31T09:26:42;2.53;;;2.33;;
19575;SDS011;41589;51.196;7.074;2022-10-31T09:31:58;3.23;;;2.60;;
19575;SDS011;41589;51.196;7.074;2022-10-31T09:37:03;2.60;;;2.40;;
19575;SDS011;41589;51.196;7.074;2022-10-31T09:47:19;2.00;;;1.80;;
19575;SDS011;41589;51.196;7.074;2022-10-31T09:52:34;1.93;;;1.83;;
19575;SDS011;41589;51.196;7.074;2022-10-31T09:57:42;2.47;;;2.07;;
19575;SDS011;41589;51.196;7.074;2022-10-31T10:02:57;2.07;;;1.83;;
19575;SDS011;41589;51.196;7.074;2022-10-31T10:08:10;2.00;;;1.90;;
19575;SDS011;41589;51.196;7.074;2022-10-31T10:23:54;1.63;;;1.53;;
19575;SDS011;41589;51.196;7.074;2022-10-31T10:28:57;2.70;;;1.50;;
19575;SDS011;41589;51.196;7.074;2022-10-31T10:34:24;1.63;;;1.53;;
19575;SDS011;41589;51.196;7.074;2022-10-31T10:39:41;1.47;;;1.33;;
19575;SDS011;41589;51.196;7.074;2022-10-31T10:44:45;1.53;;;1.47;;
19575;SDS011;41589;51.196;7.074;2022-10-31T10:50:12;2.07;;;1.30;;
19575;SDS011;41589;51.196;7.074;2022-10-31T11:00:32;1.50;;;1.40;;
19575;SDS011;41589;51.196;7.074;2022-10-31T11:10:38;1.70;;;1.60;;
19575;SDS011;41589;51.196;7.074;2022-10-31T11:15:59;1.07;;;1.00;;
19575;SDS011;41589;51.196;7.074;2022-10-31T11:21:02;1.73;;;1.30;;
19575;SDS011;41589;51.196;7.074;2022-10-31T11:26:06;1.20;;;1.10;;
19575;SDS011;41589;51.196;7.074;2022-10-31T11:31:19;1.00;;;1.00;;
19575;SDS011;41589;51.196;7.074;2022-10-31T11:36:27;1.10;;;1.00;;
19575;SDS011;41589;51.196;7.074;2022-10-31T11:41:32;1.23;;;1.13;;
19575;SDS011;41589;51.196;7.074;2022-10-31T11:46:40;1.83;;;1.23;;
19575;SDS011;41589;51.196;7.074;2022-10-31T11:51:47;1.63;;;1.30;;
19575;SDS011;41589;51.196;7.074;2022-10-31T11:56:51;0.90;;;0.90;;
19575;SDS011;41589;51.196;7.074;2022-10-31T12:01:52;2.77;;;1.13;;
19575;SDS011;41589;51.196;7.074;2022-10-31T12:06:53;1.43;;;1.10;;
19575;SDS011;41589;51.196;7.074;2022-10-31T12:17:14;1.07;;;1.00;;
19575;SDS011;41589;51.196;7.074;2022-10-31T12:33:11;2.00;;;1.30;;
19575;SDS011;41589;51.196;7.074;2022-10-31T13:05:30;1.83;;;1.10;;
19575;SDS011;41589;51.196;7.074;2022-10-31T13:10:42;1.10;;;1.00;;
19575;SDS011;41589;51.196;7.074;2022-10-31T13:15:57;1.20;;;1.10;;
19575;SDS011;41589;51.196;7.074;2022-10-31T13:21:02;1.30;;;1.00;;
19575;SDS011;41589;51.196;7.074;2022-10-31T13:26:15;2.37;;;1.27;;
19575;SDS011;41589;51.196;7.074;2022-10-31T13:31:55;1.40;;;1.30;;
19575;SDS011;41589;51.196;7.074;2022-10-31T13:42:02;1.35;;;1.20;;
19575;SDS011;41589;51.196;7.074;2022-10-31T13:47:21;1.50;;;1.37;;
19575;SDS011;41589;51.196;7.074;2022-10-31T13:52:24;1.23;;;1.13;;
19575;SDS011;41589;51.196;7.074;2022-10-31T14:02:45;1.70;;;1.30;;
19575;SDS011;41589;51.196;7.074;2022-10-31T14:07:48;1.17;;;1.07;;
19575;SDS011;41589;51.196;7.074;2022-10-31T14:12:49;1.20;;;1.10;;
19575;SDS011;41589;51.196;7.074;2022-10-31T14:22:56;1.17;;;1.10;;
19575;SDS011;41589;51.196;7.074;2022-10-31T14:27:57;1.20;;;1.10;;
19575;SDS011;41589;51.196;7.074;2022-10-31T14:33:00;2.50;;;1.20;;
19575;SDS011;41589;51.196;7.074;2022-10-31T14:38:18;1.40;;;1.30;;
19575;SDS011;41589;51.196;7.074;2022-10-31T14:53:59;1.37;;;1.27;;
19575;SDS011;41589;51.196;7.074;2022-10-31T14:59:01;2.30;;;1.20;;
19575;SDS011;41589;51.196;7.074;2022-10-31T15:04:16;1.87;;;1.37;;
19575;SDS011;41589;51.196;7.074;2022-10-31T15:09:26;1.40;;;1.10;;
19575;SDS011;41589;51.196;7.074;2022-10-31T15:14:29;1.30;;;1.10;;
19575;SDS011;41589;51.196;7.074;2022-10-31T15:19:30;1.40;;;1.10;;
19575;SDS011;41589;51.196;7.074;2022-10-31T15:24:34;1.27;;;1.17;;
19575;SDS011;41589;51.196;7.074;2022-10-31T15:29:46;1.30;;;1.20;;
19575;SDS011;41589;51.196;7.074;2022-10-31T15:34:52;1.40;;;1.17;;
19575;SDS011;41589;51.196;7.074;2022-10-31T15:39:53;1.87;;;1.40;;
19575;SDS011;41589;51.196;7.074;2022-10-31T15:44:57;1.27;;;1.17;;
19575;SDS011;41589;51.196;7.074;2022-10-31T15:50:05;1.50;;;1.20;;
19575;SDS011;41589;51.196;7.074;2022-10-31T15:55:20;0.80;;;0.80;;
19575;SDS011;41589;51.196;7.074;2022-10-31T16:05:34;1.50;;;1.40;;
19575;SDS011;41589;51.196;7.074;2022-10-31T16:10:36;1.90;;;1.13;;
19575;SDS011;41589;51.196;7.074;2022-10-31T16:15:36;1.30;;;1.20;;
19575;SDS011;41589;51.196;7.074;2022-10-31T16:20:36;1.10;;;1.00;;
19575;SDS011;41589;51.196;7.074;2022-10-31T16:25:37;1.30;;;1.20;;
19575;SDS011;41589;51.196;7.074;2022-10-31T16:30:42;3.67;;;2.90;;
19575;SDS011;41589;51.196;7.074;2022-10-31T16:35:44;2.50;;;2.30;;
19575;SDS011;41589;51.196;7.074;2022-10-31T16:40:44;2.10;;;1.60;;
19575;SDS011;41589;51.196;7.074;2022-10-31T16:45:50;2.00;;;1.90;;
19575;SDS011;41589;51.196;7.074;2022-10-31T16:50:51;0.97;;;0.97;;
19575;SDS011;41589;51.196;7.074;2022-10-31T16:55:56;1.40;;;1.30;;
19575;SDS011;41589;51.196;7.074;2022-10-31T17:00:59;1.73;;;1.63;;
19575;SDS011;41589;51.196;7.074;2022-10-31T17:06:00;1.73;;;1.10;;
19575;SDS011;41589;51.196;7.074;2022-10-31T17:11:01;1.43;;;1.33;;
19575;SDS011;41589;51.196;7.074;2022-10-31T17:16:02;1.00;;;1.00;;
19575;SDS011;41589;51.196;7.074;2022-10-31T17:21:03;1.20;;;1.07;;
19575;SDS011;41589;51.196;7.074;2022-10-31T17:26:05;1.87;;;1.30;;
19575;SDS011;41589;51.196;7.074;2022-10-31T17:31:21;1.27;;;1.17;;
19575;SDS011;41589;51.196;7.074;2022-10-31T17:36:26;1.30;;;1.17;;
19575;SDS011;41589;51.196;7.074;2022-10-31T17:41:26;1.00;;;1.00;;
19575;SDS011;41589;51.196;7.074;2022-10-31T17:46:26;1.03;;;0.93;;
19575;SDS011;41589;51.196;7.074;2022-10-31T17:51:27;1.60;;;1.30;;
19575;SDS011;41589;51.196;7.074;2022-10-31T17:56:28;1.40;;;1.17;;
19575;SDS011;41589;51.196;7.074;2022-10-31T18:01:28;1.40;;;1.30;;
19575;SDS011;41589;51.196;7.074;2022-10-31T18:06:29;2.80;;;1.60;;
19575;SDS011;41589;51.196;7.074;2022-10-31T18:11:29;1.00;;;0.93;;
19575;SDS011;41589;51.196;7.074;2022-10-31T18:16:29;1.77;;;0.93;;
19575;SDS011;41589;51.196;7.074;2022-10-31T18:21:30;0.90;;;0.90;;
19575;SDS011;41589;51.196;7.074;2022-10-31T18:26:31;1.03;;;1.03;;
19575;SDS011;41589;51.196;7.074;2022-10-31T18:31:31;1.27;;;1.17;;
19575;SDS011;41589;51.196;7.074;2022-10-31T18:36:32;0.90;;;0.90;;
19575;SDS011;41589;51.196;7.074;2022-10-31T18:41:32;1.00;;;1.00;;
19575;SDS011;41589;51.196;7.074;2022-10-31T18:46:33;1.20;;;1.10;;
19575;SDS011;41589;51.196;7.074;2022-10-31T18:51:34;1.97;;;1.10;;
19575;SDS011;41589;51.196;7.074;2022-10-31T18:56:34;1.30;;;1.20;;
19575;SDS011;41589;51.196;7.074;2022-10-31T19:01:35;0.90;;;0.90;;
19575;SDS011;41589;51.196;7.074;2022-10-31T19:06:35;1.20;;;1.20;;
19575;SDS011;41589;51.196;7.074;2022-10-31T19:11:36;1.30;;;1.20;;
19575;SDS011;41589;51.196;7.074;2022-10-31T19:16:37;1.20;;;1.10;;
19575;SDS011;41589;51.196;7.074;2022-10-31T19:21:38;1.20;;;1.10;;
19575;SDS011;41589;51.196;7.074;2022-10-31T19:26:38;1.00;;;1.00;;
19575;SDS011;41589;51.196;7.074;2022-10-31T19:31:38;1.20;;;1.10;;
19575;SDS011;41589;51.196;7.074;2022-10-31T19:36:39;1.90;;;1.50;;
19575;SDS011;41589;51.196;7.074;2022-10-31T19:41:39;1.10;;;1.00;;
19575;SDS011;41589;51.196;7.074;2022-10-31T19:46:40;1.00;;;1.00;;
19575;SDS011;41589;51.196;7.074;2022-10-31T19:51:43;0.97;;;0.97;;
19575;SDS011;41589;51.196;7.074;2022-10-31T19:56:43;1.33;;;1.23;;
19575;SDS011;41589;51.196;7.074;2022-10-31T20:01:44;1.60;;;0.80;;
19575;SDS011;41589;51.196;7.074;2022-10-31T20:06:44;1.20;;;0.90;;
19575;SDS011;41589;51.196;7.074;2022-10-31T20:11:45;1.00;;;1.00;;
19575;SDS011;41589;51.196;7.074;2022-10-31T20:16:45;1.10;;;1.00;;
19575;SDS011;41589;51.196;7.074;2022-10-31T20:21:46;1.40;;;1.30;;
19575;SDS011;41589;51.196;7.074;2022-10-31T20:26:46;1.10;;;1.00;;
19575;SDS011;41589;51.196;7.074;2022-10-31T20:31:47;1.30;;;1.20;;
19575;SDS011;41589;51.196;7.074;2022-10-31T20:36:47;1.10;;;1.00;;
19575;SDS011;41589;51.196;7.074;2022-10-31T20:41:47;0.93;;;0.93;;
19575;SDS011;41589;51.196;7.074;2022-10-31T20:46:48;0.90;;;0.90;;
19575;SDS011;41589;51.196;7.074;2022-10-31T20:51:48;1.20;;;1.00;;
19575;SDS011;41589;51.196;7.074;2022-10-31T20:56:49;1.40;;;1.30;;
19575;SDS011;41589;51.196;7.074;2022-10-31T21:01:49;1.43;;;1.10;;
19575;SDS011;41589;51.196;7.074;2022-10-31T21:06:49;1.03;;;0.90;;
19575;SDS011;41589;51.196;7.074;2022-10-31T21:11:50;0.97;;;0.97;;
19575;SDS011;41589;51.196;7.074;2022-10-31T21:16:50;1.23;;;1.10;;
19575;SDS011;41589;51.196;7.074;2022-10-31T21:21:51;1.10;;;1.00;;
19575;SDS011;41589;51.196;7.074;2022-10-31T21:26:51;1.20;;;1.07;;
19575;SDS011;41589;51.196;7.074;2022-10-31T21:31:52;3.60;;;3.40;;
19575;SDS011;41589;51.196;7.074;2022-10-31T21:36:52;1.13;;;1.10;;
19575;SDS011;41589;51.196;7.074;2022-10-31T21:41:53;1.47;;;1.00;;
19575;SDS011;41589;51.196;7.074;2022-10-31T21:46:53;1.27;;;1.07;;
19575;SDS011;41589;51.196;7.074;2022-10-31T21:51:53;1.00;;;1.00;;
19575;SDS011;41589;51.196;7.074;2022-10-31T21:56:55;1.03;;;1.03;;
19575;SDS011;41589;51.196;7.074;2022-10-31T22:01:57;1.30;;;1.20;;
19575;SDS011;41589;51.196;7.074;2022-10-31T22:06:59;1.27;;;1.17;;
19575;SDS011;41589;51.196;7.074;2022-10-31T22:11:59;1.10;;;1.00;;
19575;SDS011;41589;51.196;7.074;2022-10-31T22:17:05;0.90;;;0.90;;
19575;SDS011;41589;51.196;7.074;2022-10-31T22:22:06;1.30;;;1.00;;
19575;SDS011;41589;51.196;7.074;2022-10-31T22:27:06;1.47;;;1.00;;
19575;SDS011;41589;51.196;7.074;2022-10-31T22:32:07;1.30;;;1.20;;
19575;SDS011;41589;51.196;7.074;2022-10-31T22:37:07;1.27;;;1.17;;
19575;SDS011;41589;51.196;7.074;2022-10-31T22:42:07;1.57;;;1.10;;
19575;SDS011;41589;51.196;7.074;2022-10-31T22:47:08;1.00;;;0.90;;
19575;SDS011;41589;51.196;7.074;2022-10-31T22:52:08;1.10;;;1.10;;
19575;SDS011;41589;51.196;7.074;2022-10-31T22:57:08;1.10;;;1.10;;
19575;SDS011;41589;51.196;7.074;2022-10-31T23:02:09;1.87;;;1.20;;
19575;SDS011;41589;51.196;7.074;2022-10-31T23:07:09;1.23;;;1.13;;
19575;SDS011;41589;51.196;7.074;2022-10-31T23:12:10;0.90;;;0.90;;
19575;SDS011;41589;51.196;7.074;2022-10-31T23:17:29;1.10;;;1.03;;
19575;SDS011;41589;51.196;7.074;2022-10-31T23:22:30;1.10;;;1.00;;
19575;SDS011;41589;51.196;7.074;2022-10-31T23:27:30;1.13;;;1.03;;
19575;SDS011;41589;51.196;7.074;2022-10-31T23:32:32;1.10;;;1.00;;
19575;SDS011;41589;51.196;7.074;2022-10-31T23:37:36;0.90;;;0.90;;
19575;SDS011;41589;51.196;7.074;2022-10-31T23:42:37;0.90;;;0.90;;
19575;SDS011;41589;51.196;7.074;2022-10-31T23:47:37;0.93;;;0.87;;
19575;SDS011;41589;51.196;7.074;2022-10-31T23:52:38;1.20;;;1.10;;
19575;SDS011;41589;51.196;7.074;2022-10-31T23:57:38;1.13;;;1.03;;
